BIENTÔT MET'MAP
version 2.0 !

Prévue avant fin octobre,
la nouvelle version sera
plus belle, plus complète
et hébergée sur un serveur
3 fois plus puissant...
et toujours gratuite !


Pas compatible ?
Essayez la version Mobile !

SE CONNECTER : | S'inscrire | Disclaimer | Découvrir Orbifly |
Code OACI :
Lgende : VFR VFR Marginal IFR IFR Intensif IFR Trs Intensif
Visi :
Plafond :
>= 8 km
>= 3000ft
5 8 km
1000 3000 ft
1500m 5 km
500 1000 ft
800 1500m
200 500 ft
< 800m
< 200 ft

METAR - EPMI Miroslawiec - 25 Jan 2020 09:01 UTC - Data Source NOAA   


- Altitude de l'aérodrome : 459 ft
- Pas de NOTAMs connus.


EPMI - Miroslawiec

PAS DE METAR
TAF TAF EPMI
Valide du 25 à 06h jusqu'au 25 à 15h UTC


250500Z 2506/2515 24006KT 4000 -DZ BR OVC004
TEMPO 2506/2515 3000 RADZ BR OVC003
PROB30
TEMPO 2506/2515 1200 RADZ BR OVC002

Source NOAA


MET'MAP, la Météo Aéronautique d'un coup d'oeil ! - Copyright ORBIFLY Décembre 2007

Développement & Programmation : Alexandra Zaïnal
Co-Développement : Marc-Olivier Méhu
Soutien technique & logistique : Manuel Goepfert
Conception & Financement : Baudouin d'Aumeries